createdAt,value
2018-10-03T00:00:17.848Z,12.37
2018-10-03T00:01:17.833Z,12.38
2018-10-03T00:02:18.078Z,12.33
2018-10-03T00:03:17.531Z,12.34
2018-10-03T00:04:17.516Z,12.3
2018-10-03T00:05:17.766Z,12.27
2018-10-03T00:06:17.751Z,12.21
2018-10-03T00:07:17.999Z,12.23
2018-10-03T00:08:17.992Z,12.23
2018-10-03T00:09:17.704Z,12.13
2018-10-03T00:10:17.956Z,12.13
2018-10-03T00:11:17.406Z,12.09
2018-10-03T00:12:17.929Z,12.06
2018-10-03T00:13:17.375Z,12.08
2018-10-03T00:14:17.630Z,12.06
2018-10-03T00:15:17.889Z,11.96
2018-10-03T00:16:17.859Z,11.97
2018-10-03T00:17:17.841Z,11.93
2018-10-03T00:18:17.569Z,11.86
2018-10-03T00:19:17.283Z,11.9
2018-10-03T00:20:17.807Z,11.93
2018-10-03T00:21:17.776Z,11.93
2018-10-03T00:22:17.762Z,11.9
2018-10-03T00:23:17.830Z,11.89
2018-10-03T00:24:17.735Z,11.99
2018-10-03T00:25:17.729Z,12.01
2018-10-03T00:26:17.435Z,11.96
2018-10-03T00:27:17.420Z,11.96
2018-10-03T00:28:17.412Z,11.93
2018-10-03T00:29:17.667Z,11.97
2018-10-03T00:30:17.382Z,12.08
2018-10-03T00:31:17.631Z,12.08
2018-10-03T00:32:17.348Z,12.15
2018-10-03T00:33:17.327Z,12.06
2018-10-03T00:34:17.315Z,12.06
2018-10-03T00:35:17.299Z,12.13
2018-10-03T00:36:17.280Z,12.09
2018-10-03T00:37:17.538Z,12.13
2018-10-03T00:38:17.249Z,12.15
2018-10-03T00:39:17.503Z,12.24
2018-10-03T00:40:17.223Z,12.23
2018-10-03T00:41:17.200Z,12.23
2018-10-03T00:42:17.452Z,12.2
2018-10-03T00:43:17.172Z,12.23
2018-10-03T00:44:17.159Z,12.19
2018-10-03T00:45:17.140Z,12.21
2018-10-03T00:46:17.125Z,12.19
2018-10-03T00:47:17.373Z,12.15
2018-10-03T00:48:17.095Z,12.19
2018-10-03T00:49:17.075Z,12.15
2018-10-03T00:50:17.076Z,12.16
2018-10-03T00:51:17.314Z,12.12
2018-10-03T00:52:17.294Z,12.06
2018-10-03T00:53:17.021Z,12.06
2018-10-03T00:54:16.995Z,12.09
2018-10-03T00:55:16.985Z,12.06
2018-10-03T00:56:16.965Z,12.09
2018-10-03T00:57:16.952Z,11.94
2018-10-03T00:58:17.206Z,11.97
2018-10-03T00:59:16.660Z,11.96
2018-10-03T01:00:16.902Z,11.97
2018-10-03T01:01:16.893Z,11.93
2018-10-03T01:02:16.872Z,11.86
2018-10-03T01:03:16.865Z,11.86
2018-10-03T01:04:17.104Z,11.97
2018-10-03T01:05:17.095Z,11.9
2018-10-03T01:06:16.808Z,11.89
2018-10-03T01:07:16.531Z,11.78
2018-10-03T01:08:16.780Z,11.82
2018-10-03T01:09:17.029Z,11.82
2018-10-03T01:10:17.048Z,11.82
2018-10-03T01:11:16.733Z,11.82
2018-10-03T01:12:16.725Z,11.82
2018-10-03T01:13:16.966Z,11.8
2018-10-03T01:14:16.682Z,11.82
2018-10-03T01:15:16.405Z,11.67
2018-10-03T01:16:16.916Z,11.65
2018-10-03T01:17:16.638Z,11.64
2018-10-03T01:18:16.364Z,11.64
2018-10-03T01:19:16.876Z,11.64
2018-10-03T01:20:16.607Z,11.71
2018-10-03T01:21:16.573Z,11.68
2018-10-03T01:22:16.827Z,11.65
2018-10-03T01:23:16.547Z,11.67
2018-10-03T01:24:16.524Z,11.67
2018-10-03T01:25:16.513Z,11.67
2018-10-03T01:26:16.499Z,11.7
2018-10-03T01:27:16.741Z,11.7
2018-10-03T01:28:16.464Z,11.7
2018-10-03T01:29:16.452Z,11.7
2018-10-03T01:30:16.699Z,11.78
2018-10-03T01:31:16.677Z,11.72
2018-10-03T01:32:16.401Z,11.83
2018-10-03T01:33:16.119Z,11.83
2018-10-03T01:34:16.373Z,11.8
2018-10-03T01:35:16.359Z,11.89
2018-10-03T01:36:16.608Z,11.8
2018-10-03T01:37:16.326Z,11.9
2018-10-03T01:38:16.073Z,11.94
2018-10-03T01:39:16.549Z,11.94
2018-10-03T01:40:16.544Z,11.89
2018-10-03T01:41:16.519Z,11.89
2018-10-03T01:42:16.508Z,12.01
2018-10-03T01:43:16.232Z,11.96
2018-10-03T01:44:16.205Z,11.94
2018-10-03T01:45:16.464Z,11.99
2018-10-03T01:46:15.913Z,12.01
2018-10-03T01:47:16.423Z,12.02
2018-10-03T01:48:16.145Z,12.08
2018-10-03T01:49:16.132Z,12.11
2018-10-03T01:50:16.114Z,12.09
2018-10-03T01:51:15.837Z,12.08
2018-10-03T01:52:16.346Z,12.05
2018-10-03T01:53:16.329Z,12.06
2018-10-03T01:54:16.051Z,12.09
2018-10-03T01:55:16.295Z,12.12
2018-10-03T01:56:16.283Z,12.11
2018-10-03T01:57:15.998Z,12.13
2018-10-03T01:58:16.246Z,12.21
2018-10-03T01:59:15.709Z,12.2
2018-10-03T02:00:16.228Z,12.24
2018-10-03T02:01:16.199Z,12.2
2018-10-03T02:02:15.660Z,12.23
2018-10-03T02:03:16.175Z,12.23
2018-10-03T02:04:15.895Z,12.21
2018-10-03T02:05:16.138Z,12.21
2018-10-03T02:06:15.858Z,12.27
2018-10-03T02:07:15.582Z,12.24
2018-10-03T02:08:15.824Z,12.23
2018-10-03T02:09:15.544Z,12.29
2018-10-03T02:10:15.534Z,12.26
2018-10-03T02:11:15.514Z,12.26
2018-10-03T02:12:15.502Z,12.2
2018-10-03T02:13:16.015Z,12.26
2018-10-03T02:14:16.001Z,12.33
2018-10-03T02:15:15.451Z,12.33
2018-10-03T02:16:15.697Z,12.24
2018-10-03T02:17:15.948Z,12.33
2018-10-03T02:18:15.673Z,12.39
2018-10-03T02:19:15.657Z,12.34
2018-10-03T02:20:15.639Z,12.37
2018-10-03T02:21:15.623Z,12.33
2018-10-03T02:22:15.609Z,12.34
2018-10-03T02:23:15.858Z,12.37
2018-10-03T02:24:15.838Z,12.38
2018-10-03T02:25:15.827Z,12.31
2018-10-03T02:26:15.542Z,12.34
2018-10-03T02:27:15.791Z,12.24
2018-10-03T02:28:15.248Z,12.26
2018-10-03T02:29:15.497Z,12.29
2018-10-03T02:30:15.749Z,12.26
2018-10-03T02:31:15.732Z,12.26
2018-10-03T02:32:15.717Z,12.27
2018-10-03T02:33:15.432Z,12.24
2018-10-03T02:34:15.153Z,12.27
2018-10-03T02:35:15.404Z,12.23
2018-10-03T02:36:15.388Z,12.26
2018-10-03T02:37:15.639Z,12.26
2018-10-03T02:38:15.644Z,12.24
2018-10-03T02:39:15.615Z,12.27
2018-10-03T02:40:15.328Z,12.27
2018-10-03T02:41:15.318Z,12.27
2018-10-03T02:42:15.291Z,12.21
2018-10-03T02:43:15.017Z,12.29
2018-10-03T02:44:15.532Z,12.2
2018-10-03T02:45:15.243Z,12.21
2018-10-03T02:46:15.233Z,12.23
2018-10-03T02:47:15.474Z,12.3
2018-10-03T02:48:15.473Z,12.26
2018-10-03T02:49:15.191Z,12.23
2018-10-03T02:50:15.430Z,12.2
2018-10-03T02:51:15.424Z,12.27
2018-10-03T02:52:15.141Z,12.27
2018-10-03T02:53:15.387Z,12.26
2018-10-03T02:54:15.107Z,12.3
2018-10-03T02:55:15.362Z,12.19
2018-10-03T02:56:14.812Z,12.24
2018-10-03T02:57:15.328Z,12.24
2018-10-03T02:58:15.326Z,12.23
2018-10-03T02:59:14.757Z,12.26
2018-10-03T03:00:15.017Z,12.26
2018-10-03T03:01:15.002Z,12.24
2018-10-03T03:02:14.997Z,12.2
2018-10-03T03:03:14.702Z,12.24
2018-10-03T03:04:15.221Z,12.24
2018-10-03T03:05:15.201Z,12.26
2018-10-03T03:06:15.120Z,12.24
2018-10-03T03:07:14.908Z,12.19
2018-10-03T03:08:14.892Z,12.23
2018-10-03T03:09:15.241Z,12.24
2018-10-03T03:10:15.119Z,12.21
2018-10-03T03:11:14.574Z,12.24
2018-10-03T03:12:14.822Z,12.26
2018-10-03T03:13:14.807Z,12.26
2018-10-03T03:14:15.058Z,12.24
2018-10-03T03:15:15.042Z,12.21
2018-10-03T03:16:14.759Z,12.21
2018-10-03T03:17:15.027Z,12.26
2018-10-03T03:18:14.724Z,12.26
2018-10-03T03:19:14.714Z,12.26
2018-10-03T03:20:14.696Z,12.2
2018-10-03T03:21:14.687Z,12.23
2018-10-03T03:22:14.401Z,12.2
2018-10-03T03:23:14.655Z,12.16
2018-10-03T03:24:14.906Z,12.15
2018-10-03T03:25:14.371Z,12.2
2018-10-03T03:26:14.355Z,12.21
2018-10-03T03:27:14.582Z,12.2
2018-10-03T03:28:14.569Z,12.26
2018-10-03T03:29:14.556Z,12.2
2018-10-03T03:30:14.541Z,12.2
2018-10-03T03:31:14.533Z,12.19
2018-10-03T03:32:14.778Z,12.19
2018-10-03T03:33:14.498Z,12.16
2018-10-03T03:34:14.740Z,12.21
2018-10-03T03:35:14.724Z,12.24
2018-10-03T03:36:14.717Z,12.21
2018-10-03T03:37:15.000Z,12.2
2018-10-03T03:38:14.409Z,12.15
2018-10-03T03:39:14.662Z,12.15
2018-10-03T03:40:14.649Z,12.2
2018-10-03T03:41:14.372Z,12.2
2018-10-03T03:42:14.355Z,12.13
2018-10-03T03:43:14.348Z,12.2
2018-10-03T03:44:14.316Z,12.16
2018-10-03T03:45:14.311Z,12.16
2018-10-03T03:46:14.560Z,12.23
2018-10-03T03:47:14.271Z,12.21
2018-10-03T03:48:14.261Z,12.2
2018-10-03T03:49:14.500Z,12.19
2018-10-03T03:50:14.515Z,12.24
2018-10-03T03:51:14.219Z,12.13
2018-10-03T03:52:13.980Z,12.2
2018-10-03T03:53:14.455Z,12.23
2018-10-03T03:54:14.429Z,12.13
2018-10-03T03:55:14.439Z,12.12
2018-10-03T03:56:14.161Z,12.19
2018-10-03T03:57:14.380Z,12.09
2018-10-03T03:58:14.366Z,12.09
2018-10-03T03:59:13.826Z,12.11
2018-10-03T04:00:14.071Z,12.23
2018-10-03T04:01:14.313Z,12.2
2018-10-03T04:02:14.302Z,12.21
2018-10-03T04:03:14.296Z,12.21
2018-10-03T04:04:13.738Z,12.26
2018-10-03T04:05:13.995Z,12.23
2018-10-03T04:06:13.981Z,12.23
2018-10-03T04:07:13.956Z,12.21
2018-10-03T04:08:14.217Z,12.23
2018-10-03T04:09:14.207Z,12.13
2018-10-03T04:10:13.931Z,12.13
2018-10-03T04:11:14.159Z,12.23
2018-10-03T04:12:14.158Z,12.19
2018-10-03T04:13:13.868Z,12.21
2018-10-03T04:14:13.858Z,12.16
2018-10-03T04:15:13.832Z,12.15
2018-10-03T04:16:13.817Z,12.19
2018-10-03T04:17:14.077Z,12.19
2018-10-03T04:18:13.792Z,12.2
2018-10-03T04:19:14.042Z,12.16
2018-10-03T04:20:13.750Z,12.19
2018-10-03T04:21:14.006Z,12.2
2018-10-03T04:22:13.728Z,12.2
2018-10-03T04:23:13.451Z,12.23
2018-10-03T04:24:13.707Z,12.16
2018-10-03T04:25:13.678Z,12.23
2018-10-03T04:26:13.959Z,12.13
2018-10-03T04:27:13.909Z,12.19
2018-10-03T04:28:13.639Z,12.2
2018-10-03T04:29:13.609Z,12.19
2018-10-03T04:30:13.331Z,12.15
2018-10-03T04:31:13.314Z,12.19
2018-10-03T04:32:13.564Z,12.21
2018-10-03T04:33:13.489Z,12.19
2018-10-03T04:34:13.800Z,12.15
2018-10-03T04:35:13.867Z,12.21
2018-10-03T04:36:13.237Z,12.16
2018-10-03T04:37:13.493Z,12.15
2018-10-03T04:38:13.752Z,12.11
2018-10-03T04:39:13.460Z,12.2
2018-10-03T04:40:13.465Z,12.21
2018-10-03T04:41:13.684Z,12.2
2018-10-03T04:42:13.599Z,12.21
2018-10-03T04:43:13.126Z,12.11
2018-10-03T04:44:13.639Z,12.08
2018-10-03T04:45:13.627Z,12.19
2018-10-03T04:46:13.609Z,12.11
2018-10-03T04:47:13.598Z,12.13
2018-10-03T04:48:13.309Z,12.16
2018-10-03T04:49:13.034Z,12.08
2018-10-03T04:50:13.355Z,12.06
2018-10-03T04:51:13.531Z,12.08
2018-10-03T04:52:12.981Z,12.06
2018-10-03T04:53:13.276Z,12.11
2018-10-03T04:54:13.226Z,12.12
2018-10-03T04:55:13.466Z,12.05
2018-10-03T04:56:13.207Z,12.04
2018-10-03T04:57:13.432Z,12.04
2018-10-03T04:58:13.155Z,12.09
2018-10-03T04:59:13.139Z,12.04
2018-10-03T05:00:13.600Z,12.06
2018-10-03T05:01:12.848Z,12.01
2018-10-03T05:02:13.387Z,12.04
2018-10-03T05:03:13.081Z,12.04
2018-10-03T05:04:13.075Z,12.08
2018-10-03T05:05:13.307Z,12.08
2018-10-03T05:06:13.524Z,12.06
2018-10-03T05:07:13.288Z,12.08
2018-10-03T05:08:12.994Z,11.96
2018-10-03T05:09:12.982Z,11.99
2018-10-03T05:10:12.705Z,12.02
2018-10-03T05:11:13.023Z,11.96
2018-10-03T05:12:13.203Z,12.08
2018-10-03T05:13:13.194Z,12.08
2018-10-03T05:14:13.167Z,11.97
2018-10-03T05:15:12.891Z,11.97
2018-10-03T05:16:12.878Z,11.97
2018-10-03T05:17:13.122Z,11.97
2018-10-03T05:18:13.104Z,11.89
2018-10-03T05:19:13.091Z,11.96
2018-10-03T05:20:13.076Z,11.9
2018-10-03T05:21:13.069Z,11.93
2018-10-03T05:22:13.040Z,11.87
2018-10-03T05:23:12.762Z,11.89
2018-10-03T05:24:12.480Z,11.87
2018-10-03T05:25:12.730Z,11.83
2018-10-03T05:26:12.722Z,11.89
2018-10-03T05:27:12.989Z,11.89
2018-10-03T05:28:12.952Z,11.87
2018-10-03T05:29:12.937Z,11.9
2018-10-03T05:30:12.932Z,11.85
2018-10-03T05:31:12.641Z,11.89
2018-10-03T05:32:12.946Z,11.9
2018-10-03T05:33:12.375Z,11.9
2018-10-03T05:34:12.868Z,11.9
2018-10-03T05:35:12.337Z,11.87
2018-10-03T05:36:12.572Z,11.94
2018-10-03T05:37:12.817Z,11.96
2018-10-03T05:38:12.753Z,11.89
2018-10-03T05:39:12.504Z,11.9
2018-10-03T05:40:12.501Z,11.87
2018-10-03T05:41:12.481Z,11.93
2018-10-03T05:42:12.455Z,11.86
2018-10-03T05:43:12.725Z,11.96
2018-10-03T05:44:12.429Z,11.96
2018-10-03T05:45:12.413Z,11.9
2018-10-03T05:46:12.398Z,11.9
2018-10-03T05:47:12.652Z,11.96
2018-10-03T05:48:12.108Z,11.97
2018-10-03T05:49:12.615Z,11.96
2018-10-03T05:50:12.340Z,11.89
2018-10-03T05:51:12.319Z,11.96
2018-10-03T05:52:12.038Z,11.97
2018-10-03T05:53:12.552Z,11.97
2018-10-03T05:54:12.539Z,11.96
2018-10-03T05:55:12.257Z,11.87
2018-10-03T05:56:12.499Z,11.97
2018-10-03T05:57:11.960Z,11.94
2018-10-03T05:58:12.473Z,12.04
2018-10-03T05:59:12.193Z,11.99
2018-10-03T06:00:11.912Z,11.99
2018-10-03T06:01:12.160Z,11.99
2018-10-03T06:02:11.881Z,12.01
2018-10-03T06:03:12.395Z,11.94
2018-10-03T06:04:12.046Z,12.01
2018-10-03T06:05:11.830Z,11.99
2018-10-03T06:06:11.815Z,11.94
2018-10-03T06:07:12.065Z,11.94
2018-10-03T06:08:12.050Z,12.02
2018-10-03T06:09:11.768Z,12.08
2018-10-03T06:10:12.016Z,12.11
2018-10-03T06:11:12.002Z,12.11
2018-10-03T06:12:12.555Z,12.01
2018-10-03T06:13:11.971Z,12.02
2018-10-03T06:14:12.217Z,12.04
2018-10-03T06:15:11.944Z,12.11
2018-10-03T06:16:11.922Z,12.06
2018-10-03T06:17:11.906Z,12.04
2018-10-03T06:18:12.157Z,12.11
2018-10-03T06:19:11.885Z,12.11
2018-10-03T06:20:11.859Z,12.06
2018-10-03T06:21:12.104Z,12.05
2018-10-03T06:22:11.835Z,12.06
2018-10-03T06:23:12.077Z,12.19
2018-10-03T06:24:11.804Z,12.13
2018-10-03T06:25:12.048Z,12.12
2018-10-03T06:26:11.768Z,12.21
2018-10-03T06:27:11.755Z,12.2
2018-10-03T06:28:12.202Z,12.15
2018-10-03T06:29:11.985Z,12.16
2018-10-03T06:30:11.710Z,12.21
2018-10-03T06:31:11.692Z,12.21
2018-10-03T06:32:11.682Z,12.27
2018-10-03T06:33:11.660Z,12.24
2018-10-03T06:34:11.697Z,12.24
2018-10-03T06:35:11.360Z,12.26
2018-10-03T06:36:11.346Z,12.21
2018-10-03T06:37:11.597Z,12.23
2018-10-03T06:38:11.844Z,12.24
2018-10-03T06:39:11.298Z,12.26
2018-10-03T06:40:11.549Z,12.24
2018-10-03T06:41:11.797Z,12.21
2018-10-03T06:42:11.788Z,12.24
2018-10-03T06:43:11.240Z,12.24
2018-10-03T06:44:11.757Z,12.27
2018-10-03T06:45:11.469Z,12.19
2018-10-03T06:46:11.455Z,12.24
2018-10-03T06:47:11.705Z,12.24
2018-10-03T06:48:11.689Z,12.24
2018-10-03T06:49:11.414Z,12.24
2018-10-03T06:50:11.127Z,12.27
2018-10-03T06:51:11.380Z,12.24
2018-10-03T06:52:11.632Z,12.23
2018-10-03T06:53:11.607Z,12.19
2018-10-03T06:54:11.594Z,12.23
2018-10-03T06:55:11.317Z,12.23
2018-10-03T06:56:11.569Z,12.33
2018-10-03T06:57:11.381Z,12.33
2018-10-03T06:58:11.009Z,12.41
2018-10-03T06:59:10.992Z,12.34
2018-10-03T07:00:11.514Z,12.48
2018-10-03T07:01:11.493Z,12.45
2018-10-03T07:02:11.208Z,12.37
2018-10-03T07:03:11.204Z,12.46
2018-10-03T07:04:10.922Z,12.51
2018-10-03T07:05:11.170Z,12.46
2018-10-03T07:06:11.351Z,12.52
2018-10-03T07:07:11.398Z,12.51
2018-10-03T07:08:11.116Z,12.49
2018-10-03T07:09:11.104Z,12.54
2018-10-03T07:10:11.082Z,12.51
2018-10-03T07:11:11.338Z,12.44
2018-10-03T07:12:11.049Z,12.44
2018-10-03T07:13:11.527Z,12.56
2018-10-03T07:14:11.291Z,12.44
2018-10-03T07:15:11.275Z,12.54
2018-10-03T07:16:11.254Z,12.49
2018-10-03T07:17:10.982Z,12.44
2018-10-03T07:18:10.970Z,12.54
2018-10-03T07:19:10.692Z,12.59
2018-10-03T07:20:10.979Z,12.52
2018-10-03T07:21:11.189Z,12.64
2018-10-03T07:22:11.170Z,12.56
2018-10-03T07:23:11.165Z,12.64
2018-10-03T07:24:11.145Z,12.66
2018-10-03T07:25:10.865Z,12.66
2018-10-03T07:26:10.945Z,12.64
2018-10-03T07:27:10.826Z,12.66
2018-10-03T07:28:11.081Z,12.67
2018-10-03T07:29:11.063Z,12.7
2018-10-03T07:30:10.785Z,12.7
2018-10-03T07:31:10.770Z,12.82
2018-10-03T07:32:10.750Z,12.78
2018-10-03T07:33:10.741Z,12.82
2018-10-03T07:34:10.727Z,12.84
2018-10-03T07:35:10.708Z,12.79
2018-10-03T07:36:10.700Z,12.82
2018-10-03T07:37:10.417Z,12.88
2018-10-03T07:38:10.403Z,12.82
2018-10-03T07:39:10.911Z,12.95
2018-10-03T07:40:10.642Z,12.99
2018-10-03T07:41:10.883Z,12.95
2018-10-03T07:42:10.340Z,12.95
2018-10-03T07:43:10.595Z,12.97
2018-10-03T07:44:11.097Z,13.02
2018-10-03T07:45:10.570Z,12.99
2018-10-03T07:46:10.816Z,13.04
2018-10-03T07:47:10.797Z,13.04
2018-10-03T07:48:11.098Z,13.04
2018-10-03T07:49:10.782Z,13.03
2018-10-03T07:50:10.795Z,13.03
2018-10-03T07:51:10.478Z,13.07
2018-10-03T07:52:10.720Z,13.14
2018-10-03T07:53:10.446Z,13.12
2018-10-03T07:54:10.162Z,13.04
2018-10-03T07:55:10.407Z,13.14
2018-10-03T07:56:10.789Z,13.04
2018-10-03T07:57:10.654Z,13.09
2018-10-03T07:58:10.650Z,13.11
2018-10-03T07:59:10.243Z,13.21
2018-10-03T08:00:10.353Z,13.11
2018-10-03T08:01:10.356Z,13.15
2018-10-03T08:02:10.042Z,13.14
2018-10-03T08:03:10.301Z,13.17
2018-10-03T08:04:10.276Z,13.22
2018-10-03T08:05:09.996Z,13.3
2018-10-03T08:06:10.248Z,13.47
2018-10-03T08:07:10.498Z,13.56
2018-10-03T08:08:10.502Z,13.58
2018-10-03T08:09:10.464Z,13.61
2018-10-03T08:10:10.341Z,13.62
2018-10-03T08:11:10.178Z,13.52
2018-10-03T08:12:10.156Z,13.55
2018-10-03T08:13:09.915Z,13.61
2018-10-03T08:14:10.130Z,13.56
2018-10-03T08:15:10.124Z,13.59
2018-10-03T08:16:10.106Z,13.61
2018-10-03T08:17:10.358Z,13.54
2018-10-03T08:18:10.076Z,13.61
2018-10-03T08:19:09.790Z,13.51
2018-10-03T08:20:10.313Z,13.59
2018-10-03T08:21:10.030Z,13.56
2018-10-03T08:22:10.023Z,13.61
2018-10-03T08:23:09.997Z,13.55
2018-10-03T08:24:09.742Z,13.58
2018-10-03T08:25:09.708Z,13.59
2018-10-03T08:26:09.693Z,13.56
2018-10-03T08:27:09.946Z,13.62
2018-10-03T08:28:09.926Z,13.61
2018-10-03T08:29:10.184Z,13.69
2018-10-03T08:30:10.074Z,13.81
2018-10-03T08:31:09.884Z,13.79
2018-10-03T08:32:10.079Z,13.71
2018-10-03T08:33:10.374Z,13.91
2018-10-03T08:34:09.579Z,13.76
2018-10-03T08:35:09.827Z,13.8
2018-10-03T08:36:09.814Z,13.8
2018-10-03T08:37:10.062Z,13.87
2018-10-03T08:38:09.784Z,13.81
2018-10-03T08:39:10.037Z,13.89
2018-10-03T08:40:09.755Z,13.79
2018-10-03T08:41:09.739Z,13.77
2018-10-03T08:42:09.722Z,13.81
2018-10-03T08:43:09.721Z,13.88
2018-10-03T08:44:09.961Z,13.88
2018-10-03T08:45:09.681Z,13.92
2018-10-03T08:46:09.936Z,13.98
2018-10-03T08:47:09.656Z,14.01
2018-10-03T08:48:09.912Z,14.07
2018-10-03T08:49:09.631Z,14.16
2018-10-03T08:50:09.880Z,14.1
2018-10-03T08:51:09.600Z,14.19
2018-10-03T08:52:09.591Z,14.27
2018-10-03T08:53:09.571Z,14.21
2018-10-03T08:54:09.563Z,14.28
2018-10-03T08:55:09.381Z,14.37
2018-10-03T08:56:09.794Z,14.35
2018-10-03T08:57:09.525Z,14.37
2018-10-03T08:58:09.736Z,14.39
2018-10-03T08:59:09.239Z,14.28
2018-10-03T09:00:09.751Z,14.37
2018-10-03T09:01:09.729Z,14.37
2018-10-03T09:02:09.713Z,14.31
2018-10-03T09:03:09.444Z,14.27
2018-10-03T09:04:09.422Z,14.29
2018-10-03T09:05:09.672Z,14.28
2018-10-03T09:06:09.868Z,14.25
2018-10-03T09:07:09.123Z,14.27
2018-10-03T09:08:09.101Z,14.28
2018-10-03T09:09:09.356Z,14.27
2018-10-03T09:10:09.341Z,14.32
2018-10-03T09:11:09.590Z,14.31
2018-10-03T09:12:09.576Z,14.32
2018-10-03T09:13:09.035Z,14.32
2018-10-03T09:14:09.293Z,14.35
2018-10-03T09:15:09.543Z,14.37
2018-10-03T09:16:09.261Z,14.46
2018-10-03T09:17:09.513Z,14.44
2018-10-03T09:18:09.499Z,14.5
2018-10-03T09:19:09.220Z,14.52
2018-10-03T09:20:09.480Z,14.53
2018-10-03T09:21:09.196Z,14.54
2018-10-03T09:22:09.197Z,14.49
2018-10-03T09:23:09.434Z,14.5
2018-10-03T09:24:09.160Z,14.53
2018-10-03T09:25:09.141Z,14.5
2018-10-03T09:26:09.124Z,14.43
2018-10-03T09:27:09.119Z,14.49
2018-10-03T09:28:09.102Z,14.43
2018-10-03T09:29:08.826Z,14.46
2018-10-03T09:30:09.351Z,14.46
2018-10-03T09:31:09.345Z,14.52
2018-10-03T09:32:09.055Z,14.57
2018-10-03T09:33:09.297Z,14.54
2018-10-03T09:34:09.291Z,14.74
2018-10-03T09:35:09.012Z,14.74
2018-10-03T09:36:08.730Z,14.84
2018-10-03T09:37:08.722Z,14.88
2018-10-03T09:38:08.971Z,14.91
2018-10-03T09:39:09.223Z,14.95
2018-10-03T09:40:08.684Z,15.02
2018-10-03T09:41:08.936Z,14.9
2018-10-03T09:42:08.918Z,14.95
2018-10-03T09:43:09.174Z,14.93
2018-10-03T09:44:08.895Z,14.93
2018-10-03T09:45:09.148Z,14.93
2018-10-03T09:46:08.599Z,14.84
2018-10-03T09:47:08.590Z,14.75
2018-10-03T09:48:08.848Z,14.81
2018-10-03T09:49:08.564Z,14.74
2018-10-03T09:50:08.815Z,14.67
2018-10-03T09:51:08.813Z,14.69
2018-10-03T09:52:08.788Z,14.67
2018-10-03T09:53:09.048Z,14.75
2018-10-03T09:54:09.037Z,14.74
2018-10-03T09:55:08.753Z,14.71
2018-10-03T09:56:08.486Z,14.75
2018-10-03T09:57:08.998Z,14.84
2018-10-03T09:58:08.735Z,14.9
2018-10-03T09:59:08.704Z,14.93
2018-10-03T10:00:08.695Z,14.86
2018-10-03T10:01:08.689Z,14.87
2018-10-03T10:02:08.938Z,14.83
2018-10-03T10:03:08.661Z,14.87
2018-10-03T10:04:08.644Z,14.81
2018-10-03T10:05:08.906Z,14.84
2018-10-03T10:06:08.883Z,14.91
2018-10-03T10:07:08.601Z,14.9
2018-10-03T10:08:08.592Z,14.88
2018-10-03T10:09:08.576Z,14.83
2018-10-03T10:10:09.031Z,14.91
2018-10-03T10:11:08.695Z,14.94
2018-10-03T10:12:08.537Z,14.94
2018-10-03T10:13:08.261Z,14.94
2018-10-03T10:14:08.514Z,15.02
2018-10-03T10:15:08.501Z,15.11
2018-10-03T10:16:08.219Z,15.19
2018-10-03T10:17:08.477Z,15.24
2018-10-03T10:18:08.459Z,15.33
2018-10-03T10:19:08.728Z,15.45
2018-10-03T10:20:08.705Z,15.48
2018-10-03T10:21:08.427Z,15.54
2018-10-03T10:22:08.684Z,15.49
2018-10-03T10:23:08.671Z,15.56
2018-10-03T10:24:08.455Z,15.49
2018-10-03T10:25:08.644Z,15.56
2018-10-03T10:26:08.366Z,15.51
2018-10-03T10:27:08.359Z,15.56
2018-10-03T10:28:08.343Z,15.59
2018-10-03T10:29:08.595Z,15.66
2018-10-03T10:30:08.319Z,15.66
2018-10-03T10:31:08.042Z,15.72
2018-10-03T10:32:08.699Z,15.72
2018-10-03T10:33:08.939Z,15.75
2018-10-03T10:34:08.005Z,15.88
2018-10-03T10:35:07.996Z,16.07
2018-10-03T10:36:08.522Z,16.15
2018-10-03T10:37:08.247Z,16.18
2018-10-03T10:38:08.511Z,16.2
2018-10-03T10:39:08.222Z,16.15
2018-10-03T10:40:08.753Z,16.18
2018-10-03T10:41:08.431Z,16.18
2018-10-03T10:42:07.919Z,16.07
2018-10-03T10:43:08.167Z,15.99
2018-10-03T10:44:08.165Z,16.04
2018-10-03T10:45:08.153Z,16.09
2018-10-03T10:46:07.875Z,16.09
2018-10-03T10:47:08.135Z,16.12
2018-10-03T10:48:08.378Z,16.14
2018-10-03T10:49:08.109Z,16.11
2018-10-03T10:50:08.444Z,16.06
2018-10-03T10:51:08.347Z,15.99
2018-10-03T10:52:08.345Z,15.88
2018-10-03T10:53:08.330Z,15.93
2018-10-03T10:54:08.045Z,15.76
2018-10-03T10:55:08.307Z,15.84
2018-10-03T10:56:08.024Z,15.92
2018-10-03T10:57:08.285Z,15.89
2018-10-03T10:58:07.738Z,15.88
2018-10-03T10:59:07.735Z,16.06
2018-10-03T11:00:08.254Z,16.07
2018-10-03T11:01:08.236Z,16.01
2018-10-03T11:02:07.957Z,16.03
2018-10-03T11:03:07.956Z,16.07
2018-10-03T11:04:07.948Z,16.09
2018-10-03T11:05:08.201Z,16
2018-10-03T11:06:08.477Z,15.92
2018-10-03T11:07:07.910Z,15.88
2018-10-03T11:08:07.897Z,15.92
2018-10-03T11:09:08.147Z,15.81
2018-10-03T11:10:07.608Z,15.74
2018-10-03T11:11:07.863Z,15.74
2018-10-03T11:12:08.106Z,15.79
2018-10-03T11:13:07.576Z,15.85
2018-10-03T11:14:07.567Z,15.89
2018-10-03T11:15:07.818Z,15.94
2018-10-03T11:16:08.074Z,16.11
2018-10-03T11:17:08.328Z,16.25
2018-10-03T11:18:07.800Z,16.34
2018-10-03T11:19:07.778Z,16.31
2018-10-03T11:20:07.766Z,16.38
2018-10-03T11:21:07.487Z,16.34
2018-10-03T11:22:08.006Z,16.5
2018-10-03T11:23:07.731Z,16.52
2018-10-03T11:24:08.045Z,16.58
2018-10-03T11:25:07.713Z,16.62
2018-10-03T11:26:07.699Z,16.55
2018-10-03T11:27:07.685Z,16.56
2018-10-03T11:28:07.942Z,16.59
2018-10-03T11:29:07.662Z,16.62
2018-10-03T11:30:07.396Z,16.56
2018-10-03T11:31:07.912Z,16.62
2018-10-03T11:32:07.421Z,16.73
2018-10-03T11:33:07.906Z,16.74
2018-10-03T11:34:07.901Z,16.52
2018-10-03T11:35:07.615Z,16.53
2018-10-03T11:36:07.595Z,16.37
2018-10-03T11:37:07.589Z,16.27
2018-10-03T11:38:08.035Z,16.25
2018-10-03T11:39:07.566Z,16.2
2018-10-03T11:40:07.823Z,16.22
2018-10-03T11:41:07.552Z,16.16
2018-10-03T11:42:07.529Z,16.09
2018-10-03T11:43:07.258Z,16.04
2018-10-03T11:44:07.523Z,16.12
2018-10-03T11:45:07.239Z,16.14
2018-10-03T11:46:07.756Z,16.3
2018-10-03T11:47:07.477Z,16.37
2018-10-03T11:48:07.203Z,16.44
2018-10-03T11:49:07.188Z,16.48
2018-10-03T11:50:07.713Z,16.37
2018-10-03T11:51:07.706Z,16.4
2018-10-03T11:52:07.161Z,16.35
2018-10-03T11:53:07.419Z,16.48
2018-10-03T11:54:07.408Z,16.62
2018-10-03T11:55:07.401Z,16.83
2018-10-03T11:56:07.385Z,16.75
2018-10-03T11:57:07.133Z,16.89
2018-10-03T11:58:07.377Z,17
2018-10-03T11:59:07.101Z,17.1
2018-10-03T12:00:07.360Z,17.33
2018-10-03T12:01:07.077Z,17.54
2018-10-03T12:02:07.331Z,17.81
2018-10-03T12:03:07.661Z,18
2018-10-03T12:04:07.594Z,18.19
2018-10-03T12:05:07.576Z,18.4
2018-10-03T12:06:07.308Z,18.61
2018-10-03T12:07:07.561Z,18.61
2018-10-03T12:08:07.023Z,18.8
2018-10-03T12:09:07.345Z,18.87
2018-10-03T12:10:07.016Z,18.9
2018-10-03T12:11:07.539Z,19.38
2018-10-03T12:12:07.534Z,19.48
2018-10-03T12:13:07.526Z,19.68
2018-10-03T12:14:07.271Z,19.75
2018-10-03T12:15:06.995Z,19.94
2018-10-03T12:16:07.520Z,20.35
2018-10-03T12:17:06.979Z,20.35
2018-10-03T12:18:07.507Z,20.5
2018-10-03T12:19:06.972Z,20.81
2018-10-03T12:20:07.232Z,21.14
2018-10-03T12:21:07.493Z,21.01
2018-10-03T12:22:06.958Z,21.01
2018-10-03T12:23:07.243Z,21.01
2018-10-03T12:24:07.215Z,20.86
2018-10-03T12:25:07.597Z,20.9
2018-10-03T12:26:07.227Z,21.01
2018-10-03T12:27:07.482Z,20.95
2018-10-03T12:28:07.486Z,21.21
2018-10-03T12:29:07.213Z,21.3
2018-10-03T12:30:06.938Z,20.83
2018-10-03T12:31:06.940Z,21.08
2018-10-03T12:32:07.211Z,21.21
2018-10-03T12:33:07.196Z,21.27
2018-10-03T12:34:07.462Z,21.53
2018-10-03T12:35:07.198Z,21.53
2018-10-03T12:36:07.207Z,21.97
2018-10-03T12:37:07.476Z,22.07
2018-10-03T12:38:06.925Z,22.41
2018-10-03T12:39:07.476Z,22.27
2018-10-03T12:40:07.453Z,22.31
2018-10-03T12:41:07.190Z,22.57
2018-10-03T12:42:07.453Z,22.46
2018-10-03T12:43:07.190Z,22.2
2018-10-03T12:44:07.191Z,21.92
2018-10-03T12:45:07.817Z,21.9
2018-10-03T12:46:07.457Z,22.09
2018-10-03T12:47:06.924Z,22.29
2018-10-03T12:48:07.280Z,22.39
2018-10-03T12:49:07.446Z,22.49
2018-10-03T12:50:07.189Z,22.1
2018-10-03T12:51:07.454Z,21.63
2018-10-03T12:52:07.447Z,21.74
2018-10-03T12:53:07.449Z,21.91
2018-10-03T12:54:07.186Z,21.97
2018-10-03T12:55:06.928Z,21.95